This is the latest recevied weather packets stored in our database for station/object K1BES. If no packets are shown the sender has not sent any weather packets the latest 10 day(s).
| Time | Temp. | Humidity | Pressure | Rain* | Wind** | Luminosity | Snow |
|---|---|---|---|---|---|---|---|
| 1788446003 | 32.22° C | 73% | 1016.5 hPa | 0 mm | - | 657 W/m² | - |
| 1788445699 | 31.67° C | 74% | 1016.6 hPa | 0 mm | - | 637 W/m² | - |
| 1788445395 | 32.22° C | 72% | 1016.4 hPa | 0 mm | - | 157 W/m² | - |
| 1788445090 | 31.67° C | 74% | 1016.4 hPa | 0 mm | - | 547 W/m² | - |
| 1788444786 | 31.67° C | 75% | 1016.6 hPa | 0 mm | - | 426 W/m² | - |
| 1788444486 | 32.22° C | 74% | 1016.6 hPa | 0 mm | - | 161 W/m² | - |
| 1788444181 | 31.67° C | 75% | 1016.4 hPa | 0 mm | - | 606 W/m² | - |
| 1788443877 | 31.11° C | 77% | 1016.5 hPa | 0 mm | - | 546 W/m² | - |
| 1788443572 | 30.56° C | 80% | 1016.4 hPa | 0 mm | - | 578 W/m² | - |
| 1788443271 | 31.11° C | 78% | 1016.6 hPa | 0 mm | - | 493 W/m² | - |
| 1788442967 | 30.56° C | 79% | 1016.6 hPa | 0 mm | - | 456 W/m² | - |
| 1788442664 | 30° C | 82% | 1016.8 hPa | 0 mm | - | 444 W/m² | - |
| 1788442361 | 30° C | 82% | 1017 hPa | 0 mm | - | 155 W/m² | - |
| 1788442060 | 29.44° C | 84% | 1016.8 hPa | 0 mm | - | 348 W/m² | - |
| 1788441755 | 29.44° C | 83% | 1016.8 hPa | 0 mm | - | 372 W/m² | - |
| 1788441451 | 30° C | 82% | 1016.8 hPa | 0 mm | - | 117 W/m² | - |
| 1788441150 | 29.44° C | 83% | 1016.8 hPa | 0 mm | - | 255 W/m² | - |
| 1788440845 | 29.44° C | 84% | 1016.6 hPa | 0 mm | - | 225 W/m² | - |
| 1788440540 | 28.89° C | 84% | 1016.6 hPa | 0 mm | - | 128 W/m² | - |
| 1788440238 | 28.89° C | 86% | 1016.5 hPa | 0 mm | - | 152 W/m² | - |
| 1788439933 | 28.33° C | 89% | 1016.6 hPa | 0 mm | - | 146 W/m² | - |
| 1788439632 | 27.78° C | 91% | 1016.6 hPa | 0 mm | - | 164 W/m² | - |
| 1788439328 | 27.22° C | 93% | 1016.5 hPa | 0 mm | - | 118 W/m² | - |
| 1788439027 | 27.22° C | 96% | 1016.7 hPa | 0 mm | - | 105 W/m² | - |
| 1788438726 | 26.67° C | 97% | 1016.7 hPa | 0 mm | - | 85 W/m² | - |
* Rain latest hour (hover to see other rain measurements)
** Current wind speed in m/s (hover to see current wind gust speed)